Time;durP1;ratioP1;P1;durP2;ratioP2;P2;SDS_P1;SDS_P2;PMS_P1;PMS_P2;Temp;Humidity;BMP_temperature;BMP_pressure;BME280_temperature;BME280_humidity;BME280_pressure;Samples;Min_cycle;Max_cycle;Signal;HPM_P1;HPM_P2
2022/09/06 02:47:46;;;;;;;4.47;2.38;;;17.80;99.90;;;;;;5202405;23;82229;-72
2022/09/06 02:50:14;;;;;;;4.85;2.42;;;17.70;99.90;;;;;;4902834;28;82765;-70
2022/09/06 02:52:39;;;;;;;8.60;3.13;;;17.80;99.90;;;;;;4903023;28;82244;-71
2022/09/06 02:55:06;;;;;;;4.85;2.13;;;17.80;99.90;;;;;;4901838;28;81579;-75
2022/09/06 02:57:32;;;;;;;6.13;2.17;;;17.90;99.90;;;;;;4890247;28;81649;-72
2022/09/06 02:59:57;;;;;;;3.90;2.22;;;17.90;99.90;;;;;;4892511;28;81736;-72
2022/09/06 03:02:24;;;;;;;4.22;2.45;;;17.90;99.90;;;;;;4901614;28;82648;-69
2022/09/06 03:04:50;;;;;;;8.00;2.92;;;18.00;99.90;;;;;;4883556;28;81942;-70
2022/09/06 03:07:16;;;;;;;4.38;2.47;;;18.20;99.90;;;;;;4900743;28;82675;-69
2022/09/06 03:09:41;;;;;;;7.22;2.95;;;18.30;99.90;;;;;;4901377;28;81306;-71
2022/09/06 03:12:07;;;;;;;10.80;2.85;;;18.30;99.90;;;;;;4885765;28;81987;-69
2022/09/06 03:14:34;;;;;;;6.70;1.75;;;18.40;99.90;;;;;;4896083;28;81202;-70
2022/09/06 03:17:01;;;;;;;3.15;1.15;;;18.40;99.90;;;;;;4902506;28;81894;-71
2022/09/06 03:19:27;;;;;;;5.20;2.15;;;18.50;99.90;;;;;;4902364;28;81855;-69
2022/09/06 03:21:53;;;;;;;6.68;2.40;;;18.50;99.90;;;;;;4901627;28;81569;-70
2022/09/06 03:24:20;;;;;;;9.52;1.30;;;18.40;99.90;;;;;;4902171;28;81274;-68
2022/09/06 03:26:45;;;;;;;4.90;1.67;;;18.40;99.90;;;;;;4898144;28;81715;-70
2022/09/06 03:29:11;;;;;;;5.22;1.67;;;18.40;99.90;;;;;;4907230;28;81546;-69
2022/09/06 03:31:37;;;;;;;3.50;1.90;;;18.40;99.90;;;;;;4892440;28;84027;-69
2022/09/06 03:34:02;;;;;;;5.10;1.67;;;18.40;99.90;;;;;;4884841;28;82076;-69
2022/09/06 03:36:28;;;;;;;4.80;1.67;;;18.30;99.90;;;;;;4885630;28;81664;-70
2022/09/06 03:38:54;;;;;;;4.88;2.05;;;18.30;99.90;;;;;;4898100;28;81202;-70
2022/09/06 03:41:20;;;;;;;4.80;1.63;;;18.30;99.90;;;;;;4898454;28;82228;-71
2022/09/06 03:43:45;;;;;;;3.88;1.63;;;18.30;99.90;;;;;;4899400;28;81702;-70
2022/09/06 03:46:11;;;;;;;5.15;2.00;;;18.40;99.90;;;;;;4897235;28;81668;-72
2022/09/06 03:48:37;;;;;;;5.05;2.28;;;18.30;99.90;;;;;;4878576;28;81729;-75
2022/09/06 03:51:03;;;;;;;4.75;1.42;;;18.20;99.90;;;;;;4879615;28;82180;-71
2022/09/06 03:53:28;;;;;;;4.68;1.55;;;18.20;99.90;;;;;;4882560;28;81509;-70
2022/09/06 03:55:56;;;;;;;7.35;2.00;;;18.10;99.90;;;;;;4875398;28;82403;-71
2022/09/06 03:58:24;;;;;;;3.97;1.95;;;18.00;99.90;;;;;;4875437;28;82272;-72
2022/09/06 04:00:59;;;;;;;3.25;1.75;;;18.00;99.90;;;;;;4880258;28;81604;-69
2022/09/06 04:03:25;;;;;;;5.15;1.90;;;18.00;99.90;;;;;;4875932;28;81705;-69
2022/09/06 04:05:51;;;;;;;5.43;2.00;;;18.00;99.90;;;;;;4871009;28;82424;-71
2022/09/06 04:08:16;;;;;;;2.88;1.90;;;17.90;99.90;;;;;;4875776;28;81762;-72
2022/09/06 04:10:44;;;;;;;3.95;2.05;;;18.00;99.90;;;;;;4881029;28;83158;-69
2022/09/06 04:13:09;;;;;;;5.20;1.65;;;17.90;99.90;;;;;;4881987;28;81544;-71
2022/09/06 04:15:36;;;;;;;6.88;1.77;;;18.00;99.90;;;;;;4882935;28;81708;-70
2022/09/06 04:18:01;;;;;;;6.63;1.75;;;18.10;99.90;;;;;;4881075;28;81644;-68
2022/09/06 04:20:27;;;;;;;4.53;1.65;;;18.20;99.90;;;;;;4872149;28;82916;-69
2022/09/06 04:22:53;;;;;;;2.85;1.52;;;18.10;99.90;;;;;;4880809;28;82149;-69
2022/09/06 04:25:18;;;;;;;3.08;1.35;;;18.10;99.90;;;;;;4881048;28;81844;-70
2022/09/06 04:27:44;;;;;;;2.95;1.50;;;18.10;99.90;;;;;;4874498;28;83201;-71
2022/09/06 04:30:10;;;;;;;4.30;1.50;;;18.20;99.90;;;;;;4872535;28;82198;-72
2022/09/06 04:32:36;;;;;;;4.55;1.42;;;18.20;99.90;;;;;;4879248;28;82134;-73
2022/09/06 04:35:01;;;;;;;4.63;1.38;;;18.20;99.90;;;;;;4882434;28;81912;-70
2022/09/06 04:37:27;;;;;;;5.13;1.63;;;18.20;99.90;;;;;;4880180;28;80974;-70
2022/09/06 04:39:53;;;;;;;3.15;1.33;;;18.20;99.90;;;;;;4891986;28;82246;-71
2022/09/06 04:42:18;;;;;;;2.78;1.40;;;18.30;99.90;;;;;;4885857;28;81904;-69
2022/09/06 04:44:44;;;;;;;3.55;0.98;;;18.30;99.90;;;;;;4891189;28;83255;-68
2022/09/06 04:47:14;;;;;;;4.18;1.30;;;18.30;99.90;;;;;;4882032;28;81760;-70
2022/09/06 04:49:42;;;;;;;3.65;1.35;;;18.30;99.90;;;;;;4880020;28;82706;-71
2022/09/06 04:52:09;;;;;;;5.88;1.00;;;18.30;99.90;;;;;;4877799;28;82206;-70
2022/09/06 04:54:34;;;;;;;4.25;1.50;;;18.40;99.90;;;;;;4882370;28;82540;-69
2022/09/06 04:57:00;;;;;;;6.57;1.70;;;18.40;99.90;;;;;;4881193;28;81987;-70
2022/09/06 04:59:26;;;;;;;4.50;1.20;;;18.40;99.90;;;;;;4875254;28;87336;-70
2022/09/06 05:01:51;;;;;;;3.72;1.10;;;18.40;99.90;;;;;;4877452;28;87551;-72
2022/09/06 05:04:17;;;;;;;6.47;1.17;;;18.40;99.90;;;;;;4881803;28;86853;-67
2022/09/06 05:06:44;;;;;;;5.72;1.10;;;18.40;99.90;;;;;;4881897;28;86405;-69
2022/09/06 05:09:10;;;;;;;3.95;0.90;;;18.40;99.90;;;;;;4881318;28;88164;-70
2022/09/06 05:11:35;;;;;;;3.35;1.25;;;18.30;99.90;;;;;;4881515;28;88260;-71
2022/09/06 05:14:01;;;;;;;3.88;1.30;;;18.30;99.90;;;;;;4881682;28;86608;-72
2022/09/06 05:16:27;;;;;;;5.22;1.80;;;18.30;99.90;;;;;;4877623;28;86728;-69
2022/09/06 05:18:53;;;;;;;5.82;2.05;;;18.20;99.90;;;;;;4880504;28;87620;-70
2022/09/06 05:21:19;;;;;;;3.25;1.70;;;18.10;99.90;;;;;;4887520;28;87002;-72
2022/09/06 05:23:44;;;;;;;7.10;2.05;;;18.10;99.90;;;;;;4890904;28;87135;-70
2022/09/06 05:26:10;;;;;;;7.43;1.95;;;18.00;99.90;;;;;;4890716;28;85982;-70
2022/09/06 05:28:36;;;;;;;4.18;2.20;;;18.00;99.90;;;;;;4879982;28;87139;-71
2022/09/06 05:31:22;;;;;;;4.63;2.00;;;18.00;99.90;;;;;;4881932;28;86951;-70
2022/09/06 05:33:48;;;;;;;4.45;1.30;;;18.00;99.90;;;;;;4866153;28;88015;-71
2022/09/06 05:36:14;;;;;;;5.95;2.00;;;17.90;99.90;;;;;;4876675;28;86347;-71
2022/09/06 05:38:39;;;;;;;4.07;2.15;;;17.90;99.90;;;;;;4876258;28;86552;-71
2022/09/06 05:41:05;;;;;;;3.88;2.00;;;17.90;99.90;;;;;;4880569;28;87169;-71
2022/09/06 05:43:30;;;;;;;4.90;2.42;;;17.80;99.90;;;;;;4874615;28;86776;-72
2022/09/06 05:45:56;;;;;;;4.65;1.80;;;17.90;99.90;;;;;;4878592;28;86723;-70
2022/09/06 05:48:22;;;;;;;4.28;1.75;;;17.90;99.90;;;;;;4879530;28;87204;-72
2022/09/06 05:51:01;;;;;;;4.65;1.73;;;17.90;99.90;;;;;;4879742;28;86146;-72
2022/09/06 05:53:36;;;;;;;4.20;2.03;;;18.00;99.90;;;;;;4872977;28;86854;-69
2022/09/06 05:56:03;;;;;;;6.57;2.08;;;17.90;99.90;;;;;;4881970;28;86791;-71
2022/09/06 05:58:29;;;;;;;3.40;1.90;;;18.00;99.90;;;;;;4873592;28;90253;-71
2022/09/06 06:01:27;;;;;;;4.57;1.88;;;18.00;99.90;;;;;;4876428;28;86908;-73
2022/09/06 06:03:57;;;;;;;4.65;1.90;;;17.90;99.90;;;;;;4873999;28;86384;-71
2022/09/06 06:06:26;;;;;;;3.28;1.77;;;17.90;99.90;;;;;;4874149;28;86820;-71
2022/09/06 06:08:52;;;;;;;5.38;2.22;;;17.90;99.90;;;;;;4876505;28;88157;-71
2022/09/06 06:11:18;;;;;;;4.22;1.98;;;17.90;99.90;;;;;;4879762;28;87439;-72
2022/09/06 06:13:44;;;;;;;23.27;4.03;;;17.90;99.90;;;;;;4870425;28;87914;-70
2022/09/06 06:16:13;;;;;;;44.30;5.90;;;18.00;99.90;;;;;;4876128;28;85970;-71
2022/09/06 06:18:39;;;;;;;21.58;2.92;;;18.00;99.90;;;;;;4878044;28;87425;-70
2022/09/06 06:21:19;;;;;;;18.60;2.67;;;18.00;99.90;;;;;;4871382;28;87330;-73
2022/09/06 06:23:48;;;;;;;10.40;1.52;;;18.00;99.90;;;;;;4878044;28;89124;-70
2022/09/06 06:26:13;;;;;;;16.15;2.00;;;18.10;99.90;;;;;;4871129;28;86675;-71
2022/09/06 06:28:40;;;;;;;11.93;2.35;;;18.20;99.90;;;;;;4871097;28;87550;-70
2022/09/06 06:31:08;;;;;;;5.20;1.40;;;18.30;99.90;;;;;;4868610;28;87451;-74
2022/09/06 06:33:35;;;;;;;5.78;1.50;;;18.40;99.90;;;;;;4878266;28;86560;-71
2022/09/06 06:36:25;;;;;;;6.70;2.22;;;18.60;99.90;;;;;;4874477;28;87392;-71
2022/09/06 06:38:54;;;;;;;6.45;1.17;;;18.70;99.90;;;;;;4867670;28;87828;-69
2022/09/06 06:41:22;;;;;;;5.50;1.05;;;18.80;99.90;;;;;;4864575;28;86748;-76
2022/09/06 06:43:54;;;;;;;3.10;1.00;;;18.90;99.90;;;;;;4864666;28;87321;-70
2022/09/06 06:46:22;;;;;;;2.75;1.15;;;19.00;99.90;;;;;;4872467;28;86296;-69
2022/09/06 06:48:48;;;;;;;3.38;0.70;;;19.20;99.90;;;;;;4871885;28;88610;-69
2022/09/06 06:51:18;;;;;;;2.40;1.08;;;19.30;99.90;;;;;;4881278;28;86936;-70
2022/09/06 06:53:48;;;;;;;3.00;1.02;;;19.40;99.90;;;;;;4880497;28;87129;-71
2022/09/06 06:56:32;;;;;;;2.60;0.93;;;19.60;99.90;;;;;;4868157;28;87179;-72
2022/09/06 06:59:01;;;;;;;4.47;1.02;;;19.60;99.90;;;;;;4866594;28;87200;-72
2022/09/06 07:01:28;;;;;;;5.07;1.40;;;19.50;99.90;;;;;;4874532;28;87406;-71
2022/09/06 07:03:54;;;;;;;5.97;1.13;;;19.60;99.90;;;;;;4875679;28;86538;-69
2022/09/06 07:06:21;;;;;;;2.83;1.30;;;19.60;99.90;;;;;;4878748;28;86364;-70
2022/09/06 07:08:47;;;;;;;6.50;1.63;;;19.50;99.90;;;;;;4878155;28;87416;-71
2022/09/06 07:11:15;;;;;;;6.85;1.50;;;19.40;99.90;;;;;;4871691;28;87041;-69
2022/09/06 07:13:41;;;;;;;3.38;1.52;;;19.30;99.90;;;;;;4866668;28;88020;-73
2022/09/06 07:16:17;;;;;;;3.13;1.55;;;19.30;99.90;;;;;;4873237;28;87100;-70
2022/09/06 07:18:44;;;;;;;3.40;1.52;;;19.20;99.90;;;;;;4876692;28;86678;-71
2022/09/06 07:21:12;;;;;;;3.80;1.38;;;19.30;99.90;;;;;;4876120;28;86971;-73
2022/09/06 07:23:38;;;;;;;9.98;1.70;;;19.30;99.90;;;;;;4871363;28;87073;-73
2022/09/06 07:26:03;;;;;;;4.63;1.48;;;19.30;99.90;;;;;;4877602;28;86781;-69
2022/09/06 07:28:30;;;;;;;2.85;1.05;;;19.50;99.90;;;;;;4877484;28;87235;-68
2022/09/06 07:30:57;;;;;;;4.20;1.30;;;19.60;99.90;;;;;;4877003;28;86273;-69
2022/09/06 07:33:24;;;;;;;1.98;0.98;;;19.80;99.90;;;;;;4877691;28;86731;-74
2022/09/06 07:36:00;;;;;;;7.82;1.42;;;19.90;99.90;;;;;;4876781;28;88833;-69
2022/09/06 07:38:27;;;;;;;3.15;0.68;;;20.10;99.90;;;;;;4870780;28;88137;-70
2022/09/06 07:40:55;;;;;;;2.75;1.20;;;20.80;99.90;;;;;;4871865;28;87921;-72
2022/09/06 07:43:21;;;;;;;4.05;0.82;;;21.70;99.90;;;;;;4871747;28;86650;-70
2022/09/06 07:45:56;;;;;;;6.45;1.15;;;23.40;98.70;;;;;;4875500;28;87041;-68
2022/09/06 07:48:21;;;;;;;4.38;1.20;;;25.90;91.40;;;;;;4868762;28;87837;-70
2022/09/06 07:50:47;;;;;;;3.28;1.40;;;28.10;71.50;;;;;;4873937;28;86712;-70
2022/09/06 07:53:13;;;;;;;3.17;1.60;;;28.80;72.60;;;;;;4872518;28;87070;-70
2022/09/06 07:55:38;;;;;;;3.28;1.75;;;31.70;65.50;;;;;;4871163;28;86130;-71
2022/09/06 07:58:04;;;;;;;3.75;2.15;;;33.70;57.40;;;;;;4873236;28;87859;-72
2022/09/06 08:00:30;;;;;;;3.60;2.13;;;35.60;55.10;;;;;;4877377;28;86907;-70
2022/09/06 08:02:56;;;;;;;3.55;2.63;;;37.10;53.00;;;;;;4873171;28;87853;-68
2022/09/06 08:05:22;;;;;;;3.33;2.35;;;37.70;49.40;;;;;;4875237;28;86321;-68
2022/09/06 08:07:47;;;;;;;5.88;3.45;;;38.30;45.90;;;;;;4873088;28;87231;-68
2022/09/06 08:10:13;;;;;;;4.20;3.05;;;39.20;44.50;;;;;;4877829;28;86910;-70
2022/09/06 08:12:39;;;;;;;4.40;3.15;;;39.10;45.20;;;;;;4873630;28;87265;-69
2022/09/06 08:15:05;;;;;;;4.95;3.35;;;39.90;43.30;;;;;;4878563;28;86301;-73
2022/09/06 08:17:34;;;;;;;5.20;3.38;;;40.20;42.00;;;;;;4883009;28;86586;-71
2022/09/06 08:20:01;;;;;;;4.60;3.22;;;41.50;42.00;;;;;;4876804;28;86964;-68
2022/09/06 08:22:31;;;;;;;5.20;4.50;;;41.40;40.10;;;;;;4877659;28;86738;-66
2022/09/06 08:24:57;;;;;;;4.43;1.85;;;41.50;40.80;;;;;;4872191;28;86678;-68
2022/09/06 08:27:23;;;;;;;3.20;2.13;;;41.70;39.70;;;;;;4873461;28;88471;-67
2022/09/06 08:29:49;;;;;;;7.32;3.95;;;42.30;38.70;;;;;;4872711;28;87866;-68
2022/09/06 08:32:15;;;;;;;7.65;3.90;;;42.50;39.20;;;;;;4881906;28;87069;-67
2022/09/06 08:34:41;;;;;;;4.60;2.88;;;42.10;39.20;;;;;;4875114;28;87250;-67
2022/09/06 08:37:07;;;;;;;4.43;3.88;;;40.50;40.40;;;;;;4876343;28;88286;-68
2022/09/06 08:39:33;;;;;;;5.15;3.67;;;40.30;41.40;;;;;;4888705;28;87356;-69
2022/09/06 08:42:02;;;;;;;3.95;3.55;;;41.20;39.90;;;;;;4879975;28;86717;-67
2022/09/06 08:44:33;;;;;;;5.10;3.42;;;40.40;39.90;;;;;;4877030;28;85956;-71
2022/09/06 08:47:05;;;;;;;5.97;2.72;;;38.60;41.30;;;;;;4879160;28;88397;-70
2022/09/06 08:49:37;;;;;;;5.88;4.00;;;38.70;42.40;;;;;;4880427;28;87976;-68
2022/09/06 08:52:30;;;;;;;7.25;3.55;;;41.10;40.00;;;;;;4879093;28;87358;-67
2022/09/06 08:55:28;;;;;;;5.35;4.15;;;43.40;38.20;;;;;;4877582;28;86956;-70
2022/09/06 08:58:32;;;;;;;5.95;5.35;;;44.90;36.90;;;;;;4876834;28;88212;-70
2022/09/06 09:01:04;;;;;;;4.80;4.40;;;44.80;36.10;;;;;;4867505;28;88772;-68
2022/09/06 09:03:35;;;;;;;7.18;4.03;;;42.10;37.40;;;;;;4879240;28;86799;-68
2022/09/06 09:06:05;;;;;;;6.63;4.22;;;39.00;40.40;;;;;;4883915;28;86961;-67
2022/09/06 09:08:45;;;;;;;5.95;4.05;;;37.40;42.30;;;;;;4870454;28;89057;-68
2022/09/06 09:11:17;;;;;;;5.45;3.40;;;35.80;44.80;;;;;;4879479;28;86231;-71
2022/09/06 09:13:45;;;;;;;5.50;3.33;;;36.10;44.90;;;;;;4881469;28;86296;-69
2022/09/06 09:16:15;;;;;;;5.05;4.03;;;37.70;43.50;;;;;;4877418;28;87304;-68
2022/09/06 09:18:49;;;;;;;6.22;4.22;;;40.80;40.10;;;;;;4873957;28;89374;-70
2022/09/06 09:21:18;;;;;;;3.83;3.33;;;41.30;37.90;;;;;;4879871;28;87915;-69
2022/09/06 09:23:52;;;;;;;7.13;5.15;;;38.70;41.30;;;;;;4884152;28;86660;-69
2022/09/06 09:26:19;;;;;;;5.97;4.18;;;40.40;40.50;;;;;;4874675;28;87363;-69
2022/09/06 09:29:09;;;;;;;6.57;3.92;;;39.40;41.40;;;;;;4877620;28;87263;-69
2022/09/06 09:31:41;;;;;;;5.03;4.53;;;41.00;40.50;;;;;;4872962;28;87463;-68
2022/09/06 09:34:26;;;;;;;6.78;4.60;;;40.70;39.50;;;;;;4875005;28;86337;-69
2022/09/06 09:37:19;;;;;;;4.65;4.25;;;42.20;37.30;;;;;;4876012;28;86022;-72
2022/09/06 09:39:47;;;;;;;3.70;3.40;;;40.80;38.80;;;;;;4869462;28;87790;-68
2022/09/06 09:42:23;;;;;;;6.85;6.07;;;42.40;39.60;;;;;;4874454;28;87135;-68
2022/09/06 09:44:49;;;;;;;5.63;4.95;;;43.60;37.50;;;;;;4878547;28;87620;-69
2022/09/06 09:47:29;;;;;;;6.35;5.22;;;42.60;38.00;;;;;;4879013;28;86848;-68
2022/09/06 09:49:56;;;;;;;6.85;4.82;;;43.00;38.70;;;;;;4877816;28;88884;-68
2022/09/06 09:52:28;;;;;;;5.28;4.50;;;41.10;40.00;;;;;;4878724;28;87369;-68
2022/09/06 09:54:58;;;;;;;5.97;4.65;;;41.80;39.70;;;;;;4875666;28;86776;-69
2022/09/06 09:57:24;;;;;;;7.80;4.82;;;43.30;37.80;;;;;;4880940;28;87006;-70
2022/09/06 09:59:57;;;;;;;5.82;4.68;;;43.70;36.90;;;;;;4880270;28;86776;-68
2022/09/06 10:02:34;;;;;;;6.53;4.07;;;43.20;36.10;;;;;;4874425;28;87499;-70
2022/09/06 10:05:18;;;;;;;5.80;3.72;;;40.70;38.60;;;;;;4875578;28;86893;-68
2022/09/06 10:07:56;;;;;;;4.28;3.40;;;37.90;41.80;;;;;;4876304;28;86981;-68
2022/09/06 10:10:21;;;;;;;5.35;3.50;;;35.30;45.70;;;;;;4877341;28;88181;-71
2022/09/06 10:12:48;;;;;;;7.50;3.40;;;33.40;48.30;;;;;;4877735;28;87912;-69
2022/09/06 10:15:33;;;;;;;7.15;2.35;;;32.70;49.40;;;;;;4872980;28;86835;-68
2022/09/06 10:17:59;;;;;;;5.65;3.03;;;32.20;50.30;;;;;;4875452;28;86915;-70
2022/09/06 10:20:38;;;;;;;6.20;2.17;;;31.60;52.50;;;;;;4877583;28;87438;-71
2022/09/06 10:23:35;;;;;;;5.25;2.28;;;30.80;55.30;;;;;;4878354;28;86933;-72
2022/09/06 10:26:42;;;;;;;5.75;2.55;;;29.90;55.50;;;;;;4871750;28;86835;-69
2022/09/06 10:29:11;;;;;;;5.10;2.78;;;29.50;56.70;;;;;;4855683;28;85765;-70
2022/09/06 10:31:46;;;;;;;3.28;1.83;;;29.40;56.30;;;;;;4872604;28;86556;-71
2022/09/06 10:34:18;;;;;;;6.85;2.30;;;29.70;55.20;;;;;;4880295;28;86814;-68
2022/09/06 10:37:14;;;;;;;6.25;1.58;;;30.20;56.70;;;;;;4880292;28;87675;-70
2022/09/06 10:40:05;;;;;;;3.97;1.73;;;30.40;55.20;;;;;;4876131;28;86300;-73
2022/09/06 10:42:47;;;;;;;2.90;1.75;;;30.60;55.40;;;;;;4877356;28;87502;-69
2022/09/06 10:45:28;;;;;;;4.72;2.08;;;30.80;53.20;;;;;;4869580;28;86554;-70
2022/09/06 10:48:12;;;;;;;8.38;2.35;;;30.90;56.50;;;;;;4866799;28;88450;-70
2022/09/06 10:50:59;;;;;;;5.47;2.28;;;31.00;54.20;;;;;;4876425;28;86740;-72
2022/09/06 10:53:42;;;;;;;3.75;0.98;;;30.80;54.20;;;;;;4871893;28;86860;-71
2022/09/06 10:56:08;;;;;;;8.73;2.10;;;30.40;54.70;;;;;;4875120;28;87077;-73
2022/09/06 10:58:44;;;;;;;4.97;2.13;;;29.90;55.50;;;;;;4878781;28;86362;-71
2022/09/06 11:01:20;;;;;;;6.40;1.92;;;29.40;56.40;;;;;;4876934;28;87114;-73
2022/09/06 11:03:47;;;;;;;7.32;1.40;;;29.40;55.60;;;;;;4869566;28;88354;-72
2022/09/06 11:06:13;;;;;;;5.75;1.95;;;29.30;55.90;;;;;;4872263;28;89096;-70
2022/09/06 11:09:08;;;;;;;6.75;1.67;;;29.00;56.90;;;;;;4870965;28;86529;-71
2022/09/06 11:11:47;;;;;;;6.47;1.20;;;28.90;60.50;;;;;;4872034;28;86653;-69
2022/09/06 11:14:14;;;;;;;4.50;1.63;;;28.50;60.00;;;;;;4876275;28;87114;-70
2022/09/06 11:16:59;;;;;;;3.90;2.00;;;28.50;60.40;;;;;;4869724;28;86877;-74
2022/09/06 11:19:30;;;;;;;2.85;1.38;;;28.30;62.00;;;;;;4869534;28;86656;-71
2022/09/06 11:22:23;;;;;;;3.03;1.38;;;27.60;63.90;;;;;;4874400;28;87221;-69
2022/09/06 11:24:58;;;;;;;3.00;1.00;;;27.50;65.60;;;;;;4873833;28;87231;-69
2022/09/06 11:27:29;;;;;;;5.45;2.42;;;27.70;64.20;;;;;;4870016;28;87897;-74
2022/09/06 11:29:56;;;;;;;4.95;1.83;;;27.90;63.40;;;;;;4871797;28;87206;-69
2022/09/06 11:32:34;;;;;;;8.80;2.03;;;28.30;63.40;;;;;;4874412;28;86369;-70
2022/09/06 11:35:03;;;;;;;9.63;2.28;;;28.50;61.40;;;;;;4873339;28;87301;-70
2022/09/06 11:37:42;;;;;;;4.93;2.08;;;28.40;60.90;;;;;;4880278;28;86952;-74
2022/09/06 11:40:23;;;;;;;6.70;2.33;;;27.90;63.30;;;;;;4870814;28;86308;-70
2022/09/06 11:42:49;;;;;;;5.63;1.80;;;28.00;65.10;;;;;;4873816;28;87005;-68
2022/09/06 11:45:21;;;;;;;3.33;1.60;;;28.80;63.20;;;;;;4870266;28;87978;-69
2022/09/06 11:47:52;;;;;;;4.82;2.60;;;29.10;61.40;;;;;;4876522;28;86319;-71
2022/09/06 11:50:17;;;;;;;4.43;1.77;;;29.00;62.40;;;;;;4868184;28;86848;-69
2022/09/06 11:53:16;;;;;;;6.40;2.30;;;29.10;60.90;;;;;;4885282;28;88235;-71
2022/09/06 11:55:44;;;;;;;7.38;2.08;;;29.00;61.10;;;;;;4864966;28;88568;-68
2022/09/06 11:58:11;;;;;;;7.22;1.85;;;28.50;62.50;;;;;;4869354;28;87739;-70
2022/09/06 12:00:37;;;;;;;5.40;1.85;;;28.80;61.80;;;;;;4875029;28;86790;-70
2022/09/06 12:03:07;;;;;;;6.10;2.55;;;29.00;61.10;;;;;;4874775;28;86891;-69
2022/09/06 12:05:33;;;;;;;3.67;1.70;;;28.80;62.50;;;;;;4871983;28;87226;-74
2022/09/06 12:08:23;;;;;;;5.68;1.92;;;29.20;61.90;;;;;;4878736;28;86922;-71
2022/09/06 12:11:01;;;;;;;6.07;1.92;;;29.30;61.10;;;;;;4873137;28;86729;-70
2022/09/06 12:14:02;;;;;;;3.65;1.92;;;29.10;61.90;;;;;;4882299;28;85697;-70
2022/09/06 12:20:40;;;;;;;3.83;1.58;;;29.70;60.20;;;;;;4868581;28;87471;-68
2022/09/06 12:23:05;;;;;;;17.15;3.30;;;29.60;60.40;;;;;;4872763;28;87748;-72
2022/09/06 12:25:53;;;;;;;5.78;2.40;;;29.40;60.10;;;;;;4876275;28;87327;-70
2022/09/06 12:28:28;;;;;;;8.52;2.47;;;29.20;60.60;;;;;;4880062;28;87453;-69
2022/09/06 12:30:53;;;;;;;11.45;2.50;;;29.10;63.30;;;;;;4879905;28;87271;-70
2022/09/06 12:33:37;;;;;;;5.43;2.20;;;29.30;59.80;;;;;;4876741;28;87395;-68
2022/09/06 12:36:28;;;;;;;5.07;2.92;;;29.50;60.70;;;;;;4875675;28;86878;-70
2022/09/06 12:38:58;;;;;;;8.20;2.42;;;29.00;62.80;;;;;;4890764;28;87222;-70
2022/09/06 12:41:26;;;;;;;4.60;1.95;;;29.00;63.30;;;;;;4870322;28;86175;-69
2022/09/06 12:43:54;;;;;;;8.32;2.60;;;29.10;62.70;;;;;;4869444;28;87404;-70
2022/09/06 12:46:23;;;;;;;9.85;1.63;;;28.60;66.20;;;;;;4875617;28;87021;-69
2022/09/06 12:49:10;;;;;;;7.07;2.65;;;28.40;63.80;;;;;;4870921;28;87642;-69
2022/09/06 12:51:40;;;;;;;7.50;2.35;;;28.30;63.10;;;;;;4877222;28;88358;-68
2022/09/06 12:54:22;;;;;;;2.97;1.67;;;28.00;63.90;;;;;;4875003;28;86662;-73
2022/09/06 12:56:48;;;;;;;5.55;2.20;;;27.90;64.00;;;;;;4884122;28;87275;-71
2022/09/06 12:59:18;;;;;;;5.93;2.22;;;28.20;63.40;;;;;;4890714;28;87449;-70
2022/09/06 13:01:54;;;;;;;5.97;2.53;;;28.30;61.30;;;;;;4880760;28;86669;-71
2022/09/06 13:04:27;;;;;;;8.93;2.25;;;28.20;61.70;;;;;;4878578;28;86285;-71
2022/09/06 13:06:55;;;;;;;9.15;2.45;;;27.90;63.30;;;;;;4878493;28;86883;-72
2022/09/06 13:09:25;;;;;;;4.32;2.53;;;27.70;64.30;;;;;;4871404;28;87244;-72
2022/09/06 13:11:52;;;;;;;5.90;2.72;;;27.10;65.90;;;;;;4876371;28;87019;-71
2022/09/06 13:14:25;;;;;;;8.70;2.53;;;27.40;65.00;;;;;;4879919;28;87310;-70
2022/09/06 13:16:55;;;;;;;5.82;2.33;;;27.40;64.50;;;;;;4877445;28;87535;-70
2022/09/06 13:19:39;;;;;;;6.00;1.90;;;27.40;65.30;;;;;;4883061;28;88159;-70
2022/09/06 13:22:07;;;;;;;5.80;1.83;;;27.30;65.20;;;;;;4875515;28;87426;-72
2022/09/06 13:24:35;;;;;;;5.38;2.00;;;27.40;64.40;;;;;;4881130;28;86792;-71
2022/09/06 13:27:36;;;;;;;4.22;1.83;;;27.50;64.60;;;;;;4876548;28;87732;-70
2022/09/06 13:30:09;;;;;;;6.65;2.47;;;27.60;64.50;;;;;;4881324;28;88574;-75
2022/09/06 13:32:45;;;;;;;9.38;2.08;;;27.50;64.90;;;;;;4875885;28;87752;-66
2022/09/06 13:35:35;;;;;;;8.27;2.03;;;27.60;65.40;;;;;;4877640;28;86808;-67
2022/09/06 13:38:40;;;;;;;5.70;1.85;;;27.40;65.80;;;;;;4876775;28;87081;-70
2022/09/06 13:41:24;;;;;;;7.95;1.38;;;27.30;65.50;;;;;;4839525;29;87894;-72
2022/09/06 13:44:17;;;;;;;5.82;2.13;;;27.10;67.20;;;;;;4839939;29;87100;-70
2022/09/06 13:46:43;;;;;;;5.40;2.17;;;26.80;67.80;;;;;;4863496;28;86272;-72
2022/09/06 13:49:09;;;;;;;6.43;2.33;;;26.50;69.00;;;;;;4878993;28;86442;-71
2022/09/06 13:51:36;;;;;;;6.57;2.65;;;26.50;70.00;;;;;;4879595;28;87562;-72
2022/09/06 13:54:13;;;;;;;5.10;2.15;;;26.10;71.50;;;;;;4878780;28;88022;-70
2022/09/06 13:56:40;;;;;;;5.00;1.83;;;25.90;71.90;;;;;;4878140;28;86461;-70
2022/09/06 13:59:11;;;;;;;9.02;2.25;;;25.80;71.50;;;;;;4880984;28;85577;-69
2022/09/06 14:01:41;;;;;;;6.85;2.10;;;25.80;72.10;;;;;;4876994;28;87052;-70
2022/09/06 14:04:11;;;;;;;6.80;1.58;;;25.80;72.10;;;;;;4878961;28;87401;-72
2022/09/06 14:06:37;;;;;;;8.02;2.10;;;25.80;73.20;;;;;;4877318;28;87179;-70
2022/09/06 14:09:03;;;;;;;6.32;1.92;;;25.60;73.80;;;;;;4879024;28;87175;-73
2022/09/06 14:11:28;;;;;;;8.40;2.17;;;25.30;75.70;;;;;;4879157;28;87219;-75
2022/09/06 14:13:54;;;;;;;8.45;2.10;;;25.50;75.60;;;;;;4876148;28;86943;-71
2022/09/06 14:16:20;;;;;;;7.90;2.33;;;25.60;76.20;;;;;;4879691;28;86354;-71
2022/09/06 14:18:46;;;;;;;5.78;2.47;;;25.80;75.50;;;;;;4878830;28;86324;-74
2022/09/06 14:21:11;;;;;;;8.40;3.00;;;25.90;75.60;;;;;;4879079;28;88288;-73
2022/09/06 14:23:37;;;;;;;5.75;2.40;;;25.60;77.30;;;;;;4881019;28;86527;-72
2022/09/06 14:26:04;;;;;;;10.13;3.20;;;25.70;77.00;;;;;;4878984;28;88753;-73
2022/09/06 14:28:31;;;;;;;9.13;3.22;;;25.90;76.00;;;;;;4887365;28;86875;-71
2022/09/06 14:30:57;;;;;;;7.22;2.60;;;25.60;77.40;;;;;;4880521;28;88464;-72
2022/09/06 14:33:23;;;;;;;9.25;2.40;;;25.50;77.20;;;;;;4874097;28;87956;-72
2022/09/06 14:35:48;;;;;;;8.15;3.30;;;25.60;77.70;;;;;;4880559;28;86777;-72
2022/09/06 14:38:14;;;;;;;6.10;2.33;;;25.40;78.20;;;;;;4880307;28;86779;-70
2022/09/06 14:40:44;;;;;;;9.48;2.65;;;25.10;79.10;;;;;;4879306;28;87418;-71
2022/09/06 14:43:10;;;;;;;10.60;3.13;;;25.00;80.30;;;;;;4879733;28;86334;-71
2022/09/06 14:45:36;;;;;;;6.30;2.83;;;25.20;79.70;;;;;;4882416;28;86858;-71
2022/09/06 14:48:02;;;;;;;9.27;3.00;;;25.20;79.70;;;;;;4880349;28;85545;-70
2022/09/06 14:50:30;;;;;;;5.72;1.70;;;25.30;78.50;;;;;;4884722;28;86974;-68
2022/09/06 14:52:56;;;;;;;8.30;3.45;;;25.10;79.60;;;;;;4876910;28;86549;-71
2022/09/06 14:55:22;;;;;;;8.65;2.70;;;25.10;79.40;;;;;;4879915;28;87472;-70
2022/09/06 14:57:49;;;;;;;5.95;3.00;;;25.10;79.80;;;;;;4880112;28;86928;-71
2022/09/06 15:00:14;;;;;;;5.00;2.55;;;25.10;79.20;;;;;;4882723;28;88251;-72
2022/09/06 15:02:40;;;;;;;5.78;2.17;;;25.10;78.90;;;;;;4882297;28;86878;-72
2022/09/06 15:05:06;;;;;;;6.32;1.85;;;25.10;80.10;;;;;;4880067;28;86691;-72
2022/09/06 15:07:32;;;;;;;7.30;2.50;;;24.90;81.20;;;;;;4880657;28;86856;-73
2022/09/06 15:09:58;;;;;;;4.68;2.03;;;25.00;78.60;;;;;;4877920;28;87453;-70
2022/09/06 15:12:24;;;;;;;5.05;2.70;;;25.10;79.30;;;;;;4879278;28;87373;-71
2022/09/06 15:14:49;;;;;;;4.38;2.03;;;25.00;79.10;;;;;;4881526;28;86723;-72
2022/09/06 15:17:15;;;;;;;5.75;2.28;;;24.90;80.00;;;;;;4883800;28;86810;-70
2022/09/06 15:19:41;;;;;;;5.82;2.00;;;24.90;80.30;;;;;;4882535;28;88050;-73
2022/09/06 15:22:07;;;;;;;9.45;2.15;;;24.80;80.80;;;;;;4874948;28;87691;-70
2022/09/06 15:24:33;;;;;;;6.43;2.33;;;24.80;81.60;;;;;;4884097;28;86580;-72
2022/09/06 15:26:59;;;;;;;5.70;1.85;;;24.70;83.00;;;;;;4879700;28;86392;-72
2022/09/06 15:29:26;;;;;;;6.32;2.33;;;24.30;84.30;;;;;;4877859;28;86967;-74
2022/09/06 15:31:52;;;;;;;4.95;2.10;;;24.10;84.90;;;;;;4874278;28;86945;-73
2022/09/06 15:34:23;;;;;;;5.45;2.03;;;24.30;84.20;;;;;;4875589;28;86979;-73
2022/09/06 15:36:50;;;;;;;10.45;2.25;;;24.00;84.90;;;;;;4877894;28;86733;-71
2022/09/06 15:39:16;;;;;;;7.75;2.63;;;23.90;86.20;;;;;;4868418;28;87051;-74
2022/09/06 15:41:42;;;;;;;8.55;2.42;;;24.00;85.40;;;;;;4876529;28;87110;-72
2022/09/06 15:44:10;;;;;;;8.10;3.05;;;24.00;86.20;;;;;;4877676;28;87486;-73
2022/09/06 15:46:42;;;;;;;10.55;3.55;;;23.60;88.80;;;;;;4871905;28;86800;-72
2022/09/06 15:49:11;;;;;;;9.15;3.03;;;23.20;90.80;;;;;;4876491;28;86753;-73
2022/09/06 15:51:38;;;;;;;7.65;2.30;;;23.10;91.30;;;;;;4878909;28;87510;-75
2022/09/06 15:54:05;;;;;;;8.30;2.70;;;23.00;92.40;;;;;;4878908;28;86841;-72